X  Zatvori METAR podaci zračne luke     LBPD Plovdiv International Airport
Temperatura
38°C Temperatura
12°C Točka rosišta
21% Vlaga



Vjetar
13 KM/S
8 MPS
4 M/S
7 Čvorovi



80°
I
Trenutna situacija

Uglavnom oblačno Uglavnom oblačno
Tlak zraka 1011.85 (hPa) - 29.88 (inHg)
Vidljivost 6 (milje) - 9.7 (km)
Zračna luka
Kôd zračne luke LBPD

Lokacija: Plovdiv International Airport
Udaljenost: 14 (km)

Metar:
LBPD 181630Z AUTO 08007KT 9999 SCT110/// 38/12 Q1012 NOSIG

Vrijeme: 18-07-2024 19:30 EEST